Phelan, California
Current Conditions -  °F | °C
As of 9:55 PM on Tuesday 21 Oct 2014 (Local Time) from KGXA Reporting Station
Clear Clear  
Wind Chill: 58°   Ceiling: Unl
Heat Index: 58°   Visibility: 10mi
Dew Point: 33°   Wind: 7mph
Humidity: 38%   Direction: 260°W
Pressure: 29.96"   Gusts: NA
Location:  34.43°N, 117.57°W
Report Text: KGXA 220455Z AUTO 26006KT 10SM CLR 15/01 A2996 RMK AO2 SLP136 T01470005 TSNO $
Loading
Personal Weather Stations






























Interactive Weather Map
Tropical Storm Tracking
New forecast layout! Learn more

10-Day Weather Forecast

Advertisements
Track Severe Weather on mobile